Curtis, NE

4:06 PM CST on December 28, 2014 (GMT -0600)
North Platte Regional-Bird | Change Station
CLOSE
Current Station
Airport
Location: North Platte,
Elevation: 2776 ft
Nearby Weather Stations
Active Advisory: Special Statement

Elev 2776 ft 41.12 °N, 100.67 °W | Updated 13 minutes ago

Overcast
Overcast
25 °F
Feels Like 16 °F
N
8
Wind Variable Wind from ESE

Today
High -- | Low -- °F
--% Chance of Precip.
Yesterday
High -- | Low -- °F
Precip. -- in
8:05 AM 5:22 PM
First Quarter, 52% visible
Pressure 30.12 in
Visibility 10.0 miles
Clouds Overcast 9500 ft
Windchill 16 °F
Dew Point 17 °F
Humidity 72%
Rainfall 0.00 in
Snow Depth Not available.
UV 0 out of 12
Pollen .10 out of 12
Air Quality Not available.
Flu Activity Not available.
METAR KLBF 282153Z AUTO 11007KT 10SM OVC095 M04/M08 A2997 RMK AO2 SLP198 T10391083 $

More Conditions Fewer Conditions

Pressure 30.12 in
Visibility 10.0 miles
Clouds Overcast 9500 ft
Windchill 16 °F
Dew Point 17 °F
Humidity 72%
Rainfall 0.00 in
Snow Depth Not available.
UV 0 out of 12
Pollen .10 out of 12
Air Quality Not available.
Flu Activity Not available.
METAR KLBF 282153Z AUTO 11007KT 10SM OVC095 M04/M08 A2997 RMK AO2 SLP198 T10391083 $

More Conditions Fewer Conditions

10-Day Weather Forecast

Almanac

Astronomy

Dec. 28, 2014 Rise Set
Actual Time
Civil Twilight
Nautical Twilight
Astronomical Twilight
Moon
Length of Visible Light
Length of Day
Tomorrow will be .
, % of the Moon is Illuminated

Today's Extremes

State Highs State Lows

Community

WunderPhotos

Upload Photos

1,781,444 photos uploaded!

WunderBlogs® & News

Nearby

Air Quality

  Air Quality AQ Index Pollutant
Not available.

Snow Depth

Station Depth Elevation

Earthquake Activity

City Distance Mag. Time & Date
Minimum magnitude displayed is 2.5.

Coastal Water Temperatures

Place Temperature

Nearby Weather Stations